createdAt,value
2019-01-10T00:02:29.176Z,-0.60
2019-01-10T00:04:59.073Z,-0.60
2019-01-10T00:07:28.944Z,-0.60
2019-01-10T00:09:58.820Z,-0.60
2019-01-10T00:12:28.720Z,-0.60
2019-01-10T00:14:58.608Z,-0.60
2019-01-10T00:17:28.449Z,-0.60
2019-01-10T00:19:58.244Z,-0.60
2019-01-10T00:22:28.048Z,-0.60
2019-01-10T00:24:57.913Z,-0.60
2019-01-10T00:27:27.645Z,-0.60
2019-01-10T00:29:57.368Z,-0.60
2019-01-10T00:32:27.249Z,-0.60
2019-01-10T00:34:58.197Z,-0.60
2019-01-10T00:37:27.915Z,-0.60
2019-01-10T00:39:57.721Z,-0.60
2019-01-10T00:42:27.513Z,-0.60
2019-01-10T00:44:57.402Z,-0.50
2019-01-10T00:47:27.293Z,-0.60
2019-01-10T00:49:57.115Z,-0.60
2019-01-10T00:52:26.981Z,-0.60
2019-01-10T00:54:56.772Z,-0.60
2019-01-10T00:57:26.584Z,-0.60
2019-01-10T00:59:56.374Z,-0.50
2019-01-10T01:02:26.168Z,-0.50
2019-01-10T01:04:56.050Z,-0.50
2019-01-10T01:07:25.892Z,-0.50
2019-01-10T01:09:55.780Z,-0.50
2019-01-10T01:12:25.641Z,-0.50
2019-01-10T01:14:55.448Z,-0.50
2019-01-10T01:17:25.379Z,-0.50
2019-01-10T01:19:55.242Z,-0.50
2019-01-10T01:22:24.975Z,-0.50
2019-01-10T01:24:54.865Z,-0.50
2019-01-10T01:27:24.648Z,-0.50
2019-01-10T01:29:54.515Z,-0.50
2019-01-10T01:32:24.381Z,-0.50
2019-01-10T01:34:54.184Z,-0.50
2019-01-10T01:37:24.034Z,-0.50
2019-01-10T01:39:53.979Z,-0.60
2019-01-10T01:42:23.836Z,-0.60
2019-01-10T01:44:53.713Z,-0.60
2019-01-10T01:47:23.577Z,-0.60
2019-01-10T01:49:53.521Z,-0.50
2019-01-10T01:52:23.400Z,-0.50
2019-01-10T01:54:53.186Z,-0.50
2019-01-10T01:57:23.074Z,-0.50
2019-01-10T01:59:52.887Z,-0.60
2019-01-10T02:02:22.712Z,-0.50
2019-01-10T02:04:52.517Z,-0.50
2019-01-10T02:07:22.416Z,-0.50
2019-01-10T02:09:52.220Z,-0.50
2019-01-10T02:12:21.998Z,-0.50
2019-01-10T02:14:51.737Z,-0.50
2019-01-10T02:17:21.530Z,-0.50
2019-01-10T02:19:51.398Z,-0.40
2019-01-10T02:22:22.244Z,-0.40
2019-01-10T02:24:52.429Z,-0.40
2019-01-10T02:27:22.305Z,-0.40
2019-01-10T02:29:52.033Z,-0.40
2019-01-10T02:32:21.737Z,-0.40
2019-01-10T02:34:51.465Z,-0.40
2019-01-10T02:37:21.331Z,-0.40
2019-01-10T02:39:51.199Z,-0.40
2019-01-10T02:42:21.004Z,-0.50
2019-01-10T02:44:50.793Z,-0.50
2019-01-10T02:47:20.531Z,-0.50
2019-01-10T02:49:50.401Z,-0.40
2019-01-10T02:52:20.205Z,-0.50
2019-01-10T02:54:49.918Z,-0.40
2019-01-10T02:57:19.705Z,-0.40
2019-01-10T02:59:49.565Z,-0.40
2019-01-10T03:02:19.432Z,-0.40
2019-01-10T03:04:49.401Z,-0.40
2019-01-10T03:07:19.171Z,-0.40
2019-01-10T03:09:48.907Z,-0.40
2019-01-10T03:12:18.698Z,-0.40
2019-01-10T03:14:48.422Z,-0.40
2019-01-10T03:17:18.217Z,-0.40
2019-01-10T03:19:48.053Z,-0.40
2019-01-10T03:22:17.778Z,-0.40
2019-01-10T03:24:47.593Z,-0.40
2019-01-10T03:27:17.545Z,-0.40
2019-01-10T03:29:47.395Z,-0.40
2019-01-10T03:32:17.182Z,-0.40
2019-01-10T03:34:46.895Z,-0.40
2019-01-10T03:37:16.702Z,-0.40
2019-01-10T03:39:46.421Z,-0.40
2019-01-10T03:42:16.340Z,-0.30
2019-01-10T03:44:46.162Z,-0.40
2019-01-10T03:47:15.954Z,-0.30
2019-01-10T03:49:45.882Z,-0.40
2019-01-10T03:52:15.673Z,-0.30
2019-01-10T03:54:45.381Z,-0.30
2019-01-10T03:57:15.090Z,-0.30
2019-01-10T03:59:44.804Z,-0.30
2019-01-10T04:02:14.579Z,-0.40
2019-01-10T04:04:44.301Z,-0.30
2019-01-10T04:07:14.018Z,-0.30
2019-01-10T04:09:43.742Z,-0.30
2019-01-10T04:12:13.529Z,-0.30
2019-01-10T04:14:43.316Z,-0.30
2019-01-10T04:17:13.113Z,-0.30
2019-01-10T04:19:42.919Z,-0.30
2019-01-10T04:22:12.769Z,-0.30
2019-01-10T04:24:42.551Z,-0.30
2019-01-10T04:27:12.276Z,-0.30
2019-01-10T04:29:42.017Z,-0.30
2019-01-10T04:32:11.714Z,-0.40
2019-01-10T04:34:41.438Z,-0.40
2019-01-10T04:37:11.169Z,-0.40
2019-01-10T04:39:40.869Z,-0.30
2019-01-10T04:42:10.598Z,-0.30
2019-01-10T04:44:41.279Z,-0.30
2019-01-10T04:47:11.140Z,-0.40
2019-01-10T04:49:40.863Z,-0.40
2019-01-10T04:52:10.654Z,-0.40
2019-01-10T04:54:40.363Z,-0.40
2019-01-10T04:57:10.218Z,-0.40
2019-01-10T04:59:41.768Z,-0.40
2019-01-10T05:02:18.268Z,-0.40
2019-01-10T05:04:43.009Z,-0.30
2019-01-10T05:07:12.824Z,-0.40
2019-01-10T05:09:42.612Z,-0.40
2019-01-10T05:12:12.357Z,-0.30
2019-01-10T05:14:42.099Z,-0.30
2019-01-10T05:17:11.822Z,-0.40
2019-01-10T05:19:41.544Z,-0.40
2019-01-10T05:22:11.405Z,-0.30
2019-01-10T05:24:41.193Z,-0.30
2019-01-10T05:27:10.900Z,-0.30
2019-01-10T05:29:40.680Z,-0.30
2019-01-10T05:32:10.535Z,-0.30
2019-01-10T05:34:40.400Z,-0.30
2019-01-10T05:37:10.108Z,-0.30
2019-01-10T05:39:47.429Z,-0.20
2019-01-10T05:42:13.521Z,-0.30
2019-01-10T05:44:42.950Z,-0.30
2019-01-10T05:47:12.676Z,-0.30
2019-01-10T05:49:42.485Z,-0.30
2019-01-10T05:52:12.220Z,-0.30
2019-01-10T05:54:42.122Z,-0.30
2019-01-10T05:57:11.904Z,-0.30
2019-01-10T05:59:41.615Z,-0.30
2019-01-10T06:02:11.407Z,-0.30
2019-01-10T06:04:41.172Z,-0.30
2019-01-10T06:07:10.969Z,-0.30
2019-01-10T06:09:40.665Z,-0.30
2019-01-10T06:12:10.521Z,-0.30
2019-01-10T06:14:40.231Z,-0.30
2019-01-10T06:17:10.013Z,-0.30
2019-01-10T06:19:39.728Z,-0.20
2019-01-10T06:22:09.586Z,-0.30
2019-01-10T06:24:39.325Z,-0.30
2019-01-10T06:27:09.198Z,-0.30
2019-01-10T06:29:39.003Z,-0.20
2019-01-10T06:32:08.785Z,-0.20
2019-01-10T06:34:38.573Z,-0.20
2019-01-10T06:37:08.436Z,-0.20
2019-01-10T06:39:38.151Z,-0.20
2019-01-10T06:42:07.880Z,-0.20
2019-01-10T06:44:44.536Z,-0.20
2019-01-10T06:47:09.010Z,-0.20
2019-01-10T06:49:38.728Z,-0.20
2019-01-10T06:52:08.591Z,-0.30
2019-01-10T06:54:38.303Z,-0.20
2019-01-10T06:57:08.086Z,-0.20
2019-01-10T06:59:37.874Z,-0.20
2019-01-10T07:02:07.669Z,-0.20
2019-01-10T07:04:37.465Z,-0.20
2019-01-10T07:07:07.330Z,-0.30
2019-01-10T07:09:37.156Z,-0.30
2019-01-10T07:12:07.845Z,-0.20
2019-01-10T07:14:37.776Z,-0.20
2019-01-10T07:17:07.523Z,-0.20
2019-01-10T07:19:49.587Z,-0.20
2019-01-10T07:22:20.035Z,-0.20
2019-01-10T07:24:54.400Z,-0.20
2019-01-10T07:27:24.324Z,-0.30
2019-01-10T07:29:55.448Z,-0.30
2019-01-10T07:32:25.345Z,-0.30
2019-01-10T07:35:07.496Z,-0.40
2019-01-10T07:37:51.404Z,-0.30
2019-01-10T07:40:24.391Z,-0.30
2019-01-10T07:42:54.200Z,-0.30
2019-01-10T07:45:27.985Z,-0.40
2019-01-10T07:47:57.859Z,-0.40
2019-01-10T07:50:36.828Z,-0.30
2019-01-10T07:53:10.250Z,-0.30
2019-01-10T07:55:40.678Z,-0.30
2019-01-10T07:58:10.480Z,-0.20
2019-01-10T08:00:40.952Z,-0.20
2019-01-10T08:03:10.881Z,-0.20
2019-01-10T08:05:40.697Z,-0.10
2019-01-10T08:08:14.942Z,0.00
2019-01-10T08:10:48.983Z,0.00
2019-01-10T08:13:21.546Z,0.00
2019-01-10T08:15:51.522Z,0.10
2019-01-10T08:18:21.371Z,0.00
2019-01-10T08:20:51.199Z,0.10
2019-01-10T08:23:21.053Z,0.10
2019-01-10T08:25:55.973Z,0.10
2019-01-10T08:28:25.848Z,0.10
2019-01-10T08:30:55.558Z,0.10
2019-01-10T08:33:25.333Z,0.10
2019-01-10T08:35:55.185Z,0.20
2019-01-10T08:38:24.876Z,0.20
2019-01-10T08:40:54.677Z,0.20
2019-01-10T08:43:24.464Z,0.20
2019-01-10T08:45:54.326Z,0.20
2019-01-10T08:48:24.104Z,0.20
2019-01-10T08:50:53.982Z,0.20
2019-01-10T08:53:23.693Z,0.20
2019-01-10T08:55:53.500Z,0.30
2019-01-10T08:58:24.669Z,0.30
2019-01-10T09:00:55.854Z,0.30
2019-01-10T09:03:25.657Z,0.30
2019-01-10T09:05:55.524Z,0.30
2019-01-10T09:08:25.310Z,0.40
2019-01-10T09:10:55.182Z,0.30
2019-01-10T09:13:24.967Z,0.30
2019-01-10T09:15:54.827Z,0.40
2019-01-10T09:18:24.703Z,0.40
2019-01-10T09:20:54.436Z,0.30
2019-01-10T09:23:24.229Z,0.30
2019-01-10T09:25:54.110Z,0.40
2019-01-10T09:28:23.910Z,0.40
2019-01-10T09:30:53.783Z,0.40
2019-01-10T09:33:23.477Z,0.40
2019-01-10T09:35:53.344Z,0.50
2019-01-10T09:38:23.110Z,0.50
2019-01-10T09:40:52.907Z,0.50
2019-01-10T09:43:22.769Z,0.50
2019-01-10T09:45:52.570Z,0.60
2019-01-10T09:48:22.421Z,0.60
2019-01-10T09:50:52.285Z,0.70
2019-01-10T09:53:22.061Z,0.60
2019-01-10T09:55:51.847Z,0.60
2019-01-10T09:58:21.701Z,0.70
2019-01-10T10:00:51.574Z,0.70
2019-01-10T10:03:21.312Z,0.70
2019-01-10T10:05:51.089Z,0.70
2019-01-10T10:08:20.885Z,0.70
2019-01-10T10:10:50.746Z,0.70
2019-01-10T10:13:20.636Z,0.70
2019-01-10T10:15:52.607Z,0.60
2019-01-10T10:18:25.198Z,0.70
2019-01-10T10:20:54.905Z,0.70
2019-01-10T10:23:26.941Z,0.70
2019-01-10T10:25:57.013Z,0.60
2019-01-10T10:28:39.125Z,0.60
2019-01-10T10:31:09.289Z,0.70
2019-01-10T10:33:39.073Z,0.70
2019-01-10T10:36:09.253Z,0.70
2019-01-10T10:38:38.961Z,0.70
2019-01-10T10:41:08.836Z,0.70
2019-01-10T10:43:38.629Z,0.70
2019-01-10T10:46:08.412Z,0.70
2019-01-10T10:48:38.265Z,0.70
2019-01-10T10:51:08.140Z,0.70
2019-01-10T10:53:37.913Z,0.70
2019-01-10T10:56:08.849Z,0.70
2019-01-10T10:58:38.714Z,0.80
2019-01-10T11:01:09.149Z,0.70
2019-01-10T11:03:39.034Z,0.80
2019-01-10T11:06:08.908Z,0.80
2019-01-10T11:08:38.852Z,0.70
2019-01-10T11:11:08.688Z,0.80
2019-01-10T11:13:38.485Z,0.80
2019-01-10T11:16:10.746Z,0.80
2019-01-10T11:18:39.897Z,0.90
2019-01-10T11:21:09.745Z,0.90
2019-01-10T11:23:39.614Z,1.00
2019-01-10T11:26:10.023Z,1.00
2019-01-10T11:28:39.742Z,1.00
2019-01-10T11:31:10.578Z,1.00
2019-01-10T11:33:43.456Z,1.10
2019-01-10T11:36:13.244Z,1.10
2019-01-10T11:38:45.120Z,1.10
2019-01-10T11:41:14.594Z,1.10
2019-01-10T11:43:44.403Z,1.10
2019-01-10T11:46:19.477Z,1.00
2019-01-10T11:48:45.676Z,1.00
2019-01-10T11:51:15.482Z,1.00
2019-01-10T11:53:45.275Z,1.10
2019-01-10T11:56:15.052Z,1.10
2019-01-10T11:58:44.774Z,1.10
2019-01-10T12:01:14.663Z,1.10
2019-01-10T12:03:44.549Z,1.10
2019-01-10T12:06:14.344Z,1.10
2019-01-10T12:08:44.141Z,1.10
2019-01-10T12:11:13.925Z,1.10
2019-01-10T12:13:43.730Z,1.10
2019-01-10T12:16:13.602Z,1.10
2019-01-10T12:18:43.432Z,1.10
2019-01-10T12:21:13.202Z,1.10
2019-01-10T12:23:45.846Z,1.40
2019-01-10T12:26:15.614Z,1.50
2019-01-10T12:28:45.493Z,1.80
2019-01-10T12:31:15.283Z,2.20
2019-01-10T12:33:45.086Z,2.30
2019-01-10T12:36:14.944Z,2.10
2019-01-10T12:38:44.730Z,2.00
2019-01-10T12:41:14.428Z,1.80
2019-01-10T12:43:44.289Z,1.70
2019-01-10T12:46:14.064Z,1.50
2019-01-10T12:48:43.773Z,1.40
2019-01-10T12:51:13.642Z,1.40
2019-01-10T12:53:43.405Z,1.40
2019-01-10T12:56:13.265Z,1.30
2019-01-10T12:58:43.136Z,1.30
2019-01-10T13:01:14.799Z,1.20
2019-01-10T13:03:44.581Z,1.20
2019-01-10T13:06:14.421Z,1.20
2019-01-10T13:08:44.273Z,1.10
2019-01-10T13:11:14.228Z,1.10
2019-01-10T13:13:44.705Z,1.10
2019-01-10T13:16:14.606Z,1.10
2019-01-10T13:18:44.311Z,1.10
2019-01-10T13:21:13.996Z,1.10
2019-01-10T13:23:43.881Z,1.10
2019-01-10T13:26:13.767Z,1.10
2019-01-10T13:28:43.552Z,1.20
2019-01-10T13:31:13.395Z,1.10
2019-01-10T13:33:43.249Z,1.10
2019-01-10T13:36:13.105Z,1.10
2019-01-10T13:38:43.806Z,1.10
2019-01-10T13:41:13.662Z,1.10
2019-01-10T13:43:43.599Z,1.10
2019-01-10T13:46:14.864Z,1.20
2019-01-10T13:48:44.655Z,1.20
2019-01-10T13:51:14.529Z,1.10
2019-01-10T13:53:44.253Z,1.10
2019-01-10T13:56:14.066Z,1.00
2019-01-10T13:58:43.851Z,1.10
2019-01-10T14:01:13.682Z,1.10
2019-01-10T14:03:43.410Z,1.20
2019-01-10T14:06:13.257Z,1.20
2019-01-10T14:08:43.115Z,1.10
2019-01-10T14:11:12.895Z,1.00
2019-01-10T14:13:42.684Z,1.00
2019-01-10T14:16:12.565Z,0.90
2019-01-10T14:18:43.353Z,0.90
2019-01-10T14:21:13.278Z,0.90
2019-01-10T14:23:43.149Z,0.90
2019-01-10T14:26:13.070Z,1.00
2019-01-10T14:28:43.045Z,1.00
2019-01-10T14:31:12.894Z,0.90
2019-01-10T14:33:42.769Z,0.80
2019-01-10T14:36:12.633Z,0.80
2019-01-10T14:38:43.493Z,0.80
2019-01-10T14:41:13.425Z,0.70
2019-01-10T14:43:43.112Z,0.70
2019-01-10T14:46:12.953Z,0.70
2019-01-10T14:48:42.886Z,0.70
2019-01-10T14:51:13.174Z,0.70
2019-01-10T14:53:43.070Z,0.60
2019-01-10T14:56:12.965Z,0.60
2019-01-10T14:58:42.806Z,0.50
2019-01-10T15:01:12.767Z,0.50
2019-01-10T15:03:42.638Z,0.50
2019-01-10T15:06:12.523Z,0.40
2019-01-10T15:08:42.280Z,0.40
2019-01-10T15:11:12.103Z,0.40
2019-01-10T15:13:41.891Z,0.30
2019-01-10T15:16:11.761Z,0.30
2019-01-10T15:18:41.633Z,0.20
2019-01-10T15:21:11.445Z,0.20
2019-01-10T15:23:41.249Z,0.20
2019-01-10T15:26:11.053Z,0.20
2019-01-10T15:28:40.851Z,0.20
2019-01-10T15:31:10.586Z,0.20
2019-01-10T15:33:40.432Z,0.20
2019-01-10T15:36:10.308Z,0.20
2019-01-10T15:38:40.122Z,0.10
2019-01-10T15:41:09.988Z,0.10
2019-01-10T15:43:39.845Z,0.10
2019-01-10T15:46:09.700Z,0.00
2019-01-10T15:48:39.393Z,0.00
2019-01-10T15:51:09.250Z,0.00
2019-01-10T15:53:39.035Z,-0.10
2019-01-10T15:56:08.895Z,-0.10
2019-01-10T15:58:38.665Z,-0.10
2019-01-10T16:01:08.551Z,-0.10
2019-01-10T16:03:38.417Z,-0.10
2019-01-10T16:06:08.373Z,-0.20
2019-01-10T16:08:41.247Z,-0.20
2019-01-10T16:11:11.093Z,-0.20
2019-01-10T16:13:40.892Z,-0.30
2019-01-10T16:16:10.756Z,-0.30
2019-01-10T16:18:40.525Z,-0.30
2019-01-10T16:21:10.317Z,-0.30
2019-01-10T16:23:40.046Z,-0.30
2019-01-10T16:26:09.828Z,-0.40
2019-01-10T16:28:39.536Z,-0.40
2019-01-10T16:31:09.437Z,-0.40
2019-01-10T16:33:39.142Z,-0.40
2019-01-10T16:36:08.935Z,-0.40
2019-01-10T16:38:38.791Z,-0.40
2019-01-10T16:41:08.607Z,-0.40
2019-01-10T16:43:38.328Z,-0.40
2019-01-10T16:46:08.148Z,-0.40
2019-01-10T16:48:38.014Z,-0.40
2019-01-10T16:51:07.749Z,-0.40
2019-01-10T16:53:37.556Z,-0.40
2019-01-10T16:56:07.463Z,-0.40
2019-01-10T16:58:38.299Z,-0.40
2019-01-10T17:01:08.089Z,-0.40
2019-01-10T17:03:37.893Z,-0.50
2019-01-10T17:06:07.800Z,-0.40
2019-01-10T17:08:37.579Z,-0.50
2019-01-10T17:11:07.307Z,-0.50
2019-01-10T17:13:37.171Z,-0.50
2019-01-10T17:16:08.008Z,-0.50
2019-01-10T17:18:37.784Z,-0.50
2019-01-10T17:21:07.662Z,-0.50
2019-01-10T17:23:37.459Z,-0.50
2019-01-10T17:26:07.329Z,-0.50
2019-01-10T17:28:37.206Z,-0.40
2019-01-10T17:31:07.067Z,-0.40
2019-01-10T17:33:36.861Z,-0.50
2019-01-10T17:36:06.730Z,-0.50
2019-01-10T17:38:36.450Z,-0.50
2019-01-10T17:41:06.193Z,-0.50
2019-01-10T17:43:36.006Z,-0.50
2019-01-10T17:46:05.858Z,-0.50
2019-01-10T17:48:35.926Z,-0.50
2019-01-10T17:51:05.837Z,-0.50
2019-01-10T17:53:35.681Z,-0.50
2019-01-10T17:56:05.857Z,-0.60
2019-01-10T17:58:35.612Z,-0.50
2019-01-10T18:01:05.561Z,-0.40
2019-01-10T18:03:40.152Z,-0.50
2019-01-10T18:06:07.483Z,-0.50
2019-01-10T18:08:38.335Z,-0.50
2019-01-10T18:11:08.156Z,-0.50
2019-01-10T18:13:37.954Z,-0.50
2019-01-10T18:16:07.747Z,-0.50
2019-01-10T18:18:37.531Z,-0.50
2019-01-10T18:21:07.316Z,-0.60
2019-01-10T18:23:37.162Z,-0.50
2019-01-10T18:26:07.029Z,-0.60
2019-01-10T18:28:36.835Z,-0.60
2019-01-10T18:31:06.702Z,-0.60
2019-01-10T18:33:36.522Z,-0.60
2019-01-10T18:36:06.372Z,-0.60
2019-01-10T18:38:50.223Z,-0.60
2019-01-10T18:41:21.552Z,-0.60
2019-01-10T18:43:51.459Z,-0.60
2019-01-10T18:46:21.338Z,-0.60
2019-01-10T18:48:51.128Z,-0.70
2019-01-10T18:51:20.937Z,-0.70
2019-01-10T18:53:50.750Z,-0.70
2019-01-10T18:56:20.453Z,-0.70
2019-01-10T18:58:53.352Z,-0.60
2019-01-10T19:01:23.442Z,-0.60
2019-01-10T19:03:53.246Z,-0.70
2019-01-10T19:06:23.194Z,-0.60
2019-01-10T19:08:52.921Z,-0.60
2019-01-10T19:11:22.791Z,-0.60
2019-01-10T19:13:52.605Z,-0.50
2019-01-10T19:16:22.481Z,-0.60
2019-01-10T19:18:52.307Z,-0.60
2019-01-10T19:21:27.980Z,-0.60
2019-01-10T19:23:57.816Z,-0.70
2019-01-10T19:26:27.698Z,-0.70
2019-01-10T19:28:57.448Z,-0.70
2019-01-10T19:31:27.388Z,-0.70
2019-01-10T19:33:57.283Z,-0.70
2019-01-10T19:36:27.175Z,-0.70
2019-01-10T19:38:57.053Z,-0.70
2019-01-10T19:41:26.913Z,-0.70
2019-01-10T19:43:56.723Z,-0.70
2019-01-10T19:46:27.612Z,-0.70
2019-01-10T19:48:57.532Z,-0.60
2019-01-10T19:51:27.433Z,-0.60
2019-01-10T19:53:57.317Z,-0.60
2019-01-10T19:56:27.189Z,-0.60
2019-01-10T19:58:57.069Z,-0.60
2019-01-10T20:01:27.757Z,-0.70
2019-01-10T20:03:57.636Z,-0.70
2019-01-10T20:06:27.521Z,-0.60
2019-01-10T20:08:57.277Z,-0.60
2019-01-10T20:11:27.162Z,-0.60
2019-01-10T20:13:58.010Z,-0.70
2019-01-10T20:16:27.838Z,-0.70
2019-01-10T20:18:57.727Z,-0.70
2019-01-10T20:21:28.493Z,-0.70
2019-01-10T20:23:59.180Z,-0.70
2019-01-10T20:26:29.050Z,-0.80
2019-01-10T20:28:58.981Z,-0.80
2019-01-10T20:31:28.813Z,-0.80
2019-01-10T20:33:58.553Z,-0.80
2019-01-10T20:36:28.369Z,-0.80
2019-01-10T20:38:58.197Z,-0.80
2019-01-10T20:41:28.193Z,-0.80
2019-01-10T20:43:58.087Z,-0.80
2019-01-10T20:46:28.054Z,-0.80
2019-01-10T20:48:57.869Z,-0.80
2019-01-10T20:51:27.765Z,-0.80
2019-01-10T20:53:57.588Z,-0.80
2019-01-10T20:56:27.468Z,-0.80
2019-01-10T20:58:57.388Z,-0.80
2019-01-10T21:01:27.264Z,-0.80
2019-01-10T21:03:57.074Z,-0.80
2019-01-10T21:06:27.124Z,-0.80
2019-01-10T21:08:57.043Z,-0.80
2019-01-10T21:11:27.047Z,-0.80
2019-01-10T21:13:56.933Z,-0.80
2019-01-10T21:16:26.753Z,-0.80
2019-01-10T21:18:58.368Z,-0.70
2019-01-10T21:21:34.057Z,-0.70
2019-01-10T21:24:04.255Z,-0.70
2019-01-10T21:26:34.134Z,-0.70
2019-01-10T21:29:04.357Z,-0.70
2019-01-10T21:31:34.157Z,-0.60
2019-01-10T21:34:04.086Z,-0.70
2019-01-10T21:36:33.907Z,-0.80
2019-01-10T21:39:04.607Z,-0.80
2019-01-10T21:41:34.482Z,-0.80
2019-01-10T21:44:04.492Z,-0.90
2019-01-10T21:46:35.003Z,-0.80
2019-01-10T21:49:05.193Z,-0.90
2019-01-10T21:51:35.945Z,-0.90
2019-01-10T21:54:07.094Z,-0.80
2019-01-10T21:56:36.907Z,-0.90
2019-01-10T21:59:06.770Z,-0.90
2019-01-10T22:01:36.573Z,-0.90
2019-01-10T22:04:06.480Z,-0.90
2019-01-10T22:06:36.385Z,-0.90
2019-01-10T22:09:07.720Z,-0.90
2019-01-10T22:11:37.529Z,-1.00
2019-01-10T22:14:07.627Z,-1.00
2019-01-10T22:16:37.445Z,-1.00
2019-01-10T22:19:07.281Z,-1.00
2019-01-10T22:21:37.222Z,-1.00
2019-01-10T22:24:07.078Z,-1.00
2019-01-10T22:26:36.933Z,-1.10
2019-01-10T22:29:06.764Z,-1.10
2019-01-10T22:31:36.578Z,-1.20
2019-01-10T22:34:06.512Z,-1.20
2019-01-10T22:36:36.429Z,-1.30
2019-01-10T22:39:08.252Z,-1.40
2019-01-10T22:41:38.074Z,-1.60
2019-01-10T22:44:07.930Z,-1.70
2019-01-10T22:46:37.731Z,-1.80
2019-01-10T22:49:07.520Z,-1.90
2019-01-10T22:51:37.348Z,-2.00
2019-01-10T22:54:07.200Z,-2.10
2019-01-10T22:56:37.007Z,-2.20
2019-01-10T22:59:06.901Z,-2.30
2019-01-10T23:01:48.479Z,-2.30
2019-01-10T23:04:26.846Z,-2.40
2019-01-10T23:06:56.703Z,-2.40
2019-01-10T23:09:26.494Z,-2.40
2019-01-10T23:11:56.358Z,-2.50
2019-01-10T23:14:26.140Z,-2.50
2019-01-10T23:16:56.010Z,-2.50
2019-01-10T23:19:25.824Z,-2.50
2019-01-10T23:21:55.631Z,-2.50
2019-01-10T23:24:26.881Z,-2.50
2019-01-10T23:26:57.085Z,-2.50
2019-01-10T23:29:32.757Z,-2.50
2019-01-10T23:32:13.722Z,-2.40
2019-01-10T23:34:52.919Z,-2.50
2019-01-10T23:37:24.196Z,-2.40
2019-01-10T23:39:54.928Z,-2.30
2019-01-10T23:42:24.725Z,-2.30
2019-01-10T23:44:54.581Z,-2.30
2019-01-10T23:47:24.393Z,-2.30
2019-01-10T23:49:54.252Z,-2.30
2019-01-10T23:52:24.135Z,-2.30
2019-01-10T23:54:54.027Z,-2.20
2019-01-10T23:57:23.822Z,-2.20
2019-01-10T23:59:53.555Z,-2.10
